createdAt,value
2016-12-22T00:00:47.329Z,965.07
2016-12-22T00:01:47.340Z,965.09
2016-12-22T00:02:47.352Z,965.03
2016-12-22T00:03:47.364Z,965
2016-12-22T00:04:47.374Z,965
2016-12-22T00:05:47.403Z,965.02
2016-12-22T00:06:47.401Z,965
2016-12-22T00:07:47.410Z,964.98
2016-12-22T00:08:47.419Z,964.96
2016-12-22T00:09:47.431Z,964.95
2016-12-22T00:10:47.444Z,965.01
2016-12-22T00:11:47.454Z,965.03
2016-12-22T00:12:47.470Z,965.03
2016-12-22T00:13:47.478Z,965.04
2016-12-22T00:14:47.490Z,965.04
2016-12-22T00:15:47.500Z,965.05
2016-12-22T00:16:47.514Z,965.07
2016-12-22T00:17:47.524Z,965.05
2016-12-22T00:18:47.535Z,965.11
2016-12-22T00:19:47.547Z,965.1
2016-12-22T00:20:47.558Z,965.05
2016-12-22T00:21:47.570Z,965.12
2016-12-22T00:22:47.581Z,965.06
2016-12-22T00:23:47.593Z,965.1
2016-12-22T00:24:47.605Z,965.11
2016-12-22T00:25:47.617Z,965.09
2016-12-22T00:26:47.627Z,965.12
2016-12-22T00:27:47.639Z,965.09
2016-12-22T00:28:47.651Z,965.1
2016-12-22T00:29:47.661Z,965.13
2016-12-22T00:30:47.673Z,965.09
2016-12-22T00:31:47.685Z,965.08
2016-12-22T00:32:47.698Z,965.08
2016-12-22T00:33:47.726Z,965.1
2016-12-22T00:34:47.719Z,965.04
2016-12-22T00:35:47.729Z,965.06
2016-12-22T00:36:47.743Z,965.06
2016-12-22T00:37:47.753Z,965.07
2016-12-22T00:38:47.770Z,965.04
2016-12-22T00:39:47.777Z,965.05
2016-12-22T00:40:47.792Z,965.04
2016-12-22T00:41:47.798Z,965.03
2016-12-22T00:42:47.811Z,965.02
2016-12-22T00:43:47.823Z,965.03
2016-12-22T00:44:47.836Z,965.05
2016-12-22T00:45:47.845Z,965.04
2016-12-22T00:46:47.860Z,965.01
2016-12-22T00:47:47.868Z,965.05
2016-12-22T00:48:47.878Z,965.08
2016-12-22T00:49:47.892Z,965.09
2016-12-22T00:50:47.905Z,965.08
2016-12-22T00:51:47.913Z,965.12
2016-12-22T00:52:47.925Z,965.13
2016-12-22T00:53:47.937Z,965.15
2016-12-22T00:54:47.949Z,965.21
2016-12-22T00:55:47.959Z,965.19
2016-12-22T00:56:47.971Z,965.24
2016-12-22T00:57:47.983Z,965.21
2016-12-22T00:58:47.993Z,965.26
2016-12-22T00:59:48.004Z,965.25
2016-12-22T01:00:48.014Z,965.28
2016-12-22T01:01:48.027Z,965.3
2016-12-22T01:02:48.038Z,965.34
2016-12-22T01:03:48.049Z,965.34
2016-12-22T01:04:48.062Z,965.37
2016-12-22T01:05:48.073Z,965.37
2016-12-22T01:06:48.083Z,965.39
2016-12-22T01:07:48.096Z,965.39
2016-12-22T01:08:48.107Z,965.42
2016-12-22T01:09:48.119Z,965.37
2016-12-22T01:10:48.130Z,965.4
2016-12-22T01:11:48.143Z,965.38
2016-12-22T01:12:48.152Z,965.35
2016-12-22T01:13:48.164Z,965.37
2016-12-22T01:14:48.177Z,965.41
2016-12-22T01:15:48.187Z,965.44
2016-12-22T01:16:48.213Z,965.44
2016-12-22T01:17:48.209Z,965.4
2016-12-22T01:18:48.221Z,965.37
2016-12-22T01:19:48.233Z,965.38
2016-12-22T01:20:48.243Z,965.36
2016-12-22T01:21:48.255Z,965.35
2016-12-22T01:22:48.267Z,965.35
2016-12-22T01:23:48.278Z,965.34
2016-12-22T01:24:48.288Z,965.34
2016-12-22T01:25:48.300Z,965.29
2016-12-22T01:26:48.312Z,965.31
2016-12-22T01:27:48.323Z,965.31
2016-12-22T01:28:48.333Z,965.3
2016-12-22T01:29:48.345Z,965.29
2016-12-22T01:30:48.358Z,965.3
2016-12-22T01:31:48.368Z,965.3
2016-12-22T01:32:48.379Z,965.28
2016-12-22T01:33:48.391Z,965.35
2016-12-22T01:34:48.404Z,965.32
2016-12-22T01:35:48.413Z,965.36
2016-12-22T01:36:48.425Z,965.38
2016-12-22T01:37:48.436Z,965.35
2016-12-22T01:38:48.446Z,965.36
2016-12-22T01:39:48.458Z,965.38
2016-12-22T01:40:48.471Z,965.37
2016-12-22T01:41:48.481Z,965.38
2016-12-22T01:42:48.492Z,965.39
2016-12-22T01:43:48.503Z,965.41
2016-12-22T01:44:48.533Z,965.4
2016-12-22T01:45:48.526Z,965.41
2016-12-22T01:46:48.537Z,965.42
2016-12-22T01:47:48.548Z,965.42
2016-12-22T01:48:48.561Z,965.44
2016-12-22T01:49:48.572Z,965.46
2016-12-22T01:50:48.581Z,965.46
2016-12-22T01:51:48.598Z,965.48
2016-12-22T01:52:48.605Z,965.45
2016-12-22T01:53:48.615Z,965.43
2016-12-22T01:54:48.627Z,965.45
2016-12-22T01:55:48.637Z,965.43
2016-12-22T01:56:48.649Z,965.42
2016-12-22T01:57:48.660Z,965.41
2016-12-22T01:58:48.675Z,965.43
2016-12-22T01:59:48.683Z,965.44
2016-12-22T02:00:48.695Z,965.4
2016-12-22T02:01:48.710Z,965.45
2016-12-22T02:02:48.716Z,965.43
2016-12-22T02:03:48.728Z,965.4
2016-12-22T02:04:48.739Z,965.42
2016-12-22T02:05:48.750Z,965.37
2016-12-22T02:06:48.760Z,965.41
2016-12-22T02:07:48.773Z,965.39
2016-12-22T02:08:48.783Z,965.34
2016-12-22T02:09:48.795Z,965.38
2016-12-22T02:10:48.807Z,965.4
2016-12-22T02:11:48.818Z,965.39
2016-12-22T02:12:48.829Z,965.36
2016-12-22T02:13:48.841Z,965.37
2016-12-22T02:14:48.851Z,965.36
2016-12-22T02:15:48.862Z,965.39
2016-12-22T02:16:48.874Z,965.37
2016-12-22T02:17:48.886Z,965.33
2016-12-22T02:18:48.897Z,965.39
2016-12-22T02:19:48.907Z,965.4
2016-12-22T02:20:48.919Z,965.4
2016-12-22T02:21:48.930Z,965.41
2016-12-22T02:22:48.943Z,965.39
2016-12-22T02:23:48.953Z,965.42
2016-12-22T02:24:48.965Z,965.39
2016-12-22T02:25:48.977Z,965.36
2016-12-22T02:26:48.988Z,965.38
2016-12-22T02:27:49.018Z,965.39
2016-12-22T02:28:49.010Z,965.4
2016-12-22T02:29:49.022Z,965.37
2016-12-22T02:30:49.034Z,965.38
2016-12-22T02:31:49.044Z,965.43
2016-12-22T02:32:49.055Z,965.46
2016-12-22T02:33:49.067Z,965.41
2016-12-22T02:34:49.084Z,965.41
2016-12-22T02:35:49.089Z,965.41
2016-12-22T02:36:49.101Z,965.41
2016-12-22T02:37:49.111Z,965.42
2016-12-22T02:38:49.123Z,965.38
2016-12-22T02:39:49.134Z,965.39
2016-12-22T02:40:49.147Z,965.42
2016-12-22T02:41:49.160Z,965.37
2016-12-22T02:42:49.169Z,965.41
2016-12-22T02:43:49.180Z,965.38
2016-12-22T02:44:49.190Z,965.38
2016-12-22T02:45:49.203Z,965.39
2016-12-22T02:46:49.213Z,965.39
2016-12-22T02:47:49.226Z,965.38
2016-12-22T02:48:49.235Z,965.36
2016-12-22T02:49:49.248Z,965.4
2016-12-22T02:50:49.261Z,965.39
2016-12-22T02:51:49.270Z,965.4
2016-12-22T02:52:49.332Z,965.39
2016-12-22T02:53:49.293Z,965.43
2016-12-22T02:54:49.304Z,965.39
2016-12-22T02:55:49.314Z,965.42
2016-12-22T02:56:49.326Z,965.37
2016-12-22T02:57:49.338Z,965.35
2016-12-22T02:58:49.349Z,965.35
2016-12-22T02:59:49.359Z,965.38
2016-12-22T03:00:49.371Z,965.38
2016-12-22T03:01:49.382Z,965.4
2016-12-22T03:02:49.403Z,965.37
2016-12-22T03:03:49.404Z,965.37
2016-12-22T03:04:49.415Z,965.38
2016-12-22T03:05:49.427Z,965.43
2016-12-22T03:06:49.438Z,965.41
2016-12-22T03:07:49.450Z,965.46
2016-12-22T03:08:49.460Z,965.46
2016-12-22T03:09:49.474Z,965.43
2016-12-22T03:10:49.482Z,965.45
2016-12-22T03:11:49.494Z,965.44
2016-12-22T03:12:49.505Z,965.46
2016-12-22T03:13:49.516Z,965.45
2016-12-22T03:14:49.527Z,965.45
2016-12-22T03:15:49.538Z,965.44
2016-12-22T03:16:49.553Z,965.45
2016-12-22T03:17:49.559Z,965.43
2016-12-22T03:18:49.571Z,965.48
2016-12-22T03:19:49.582Z,965.45
2016-12-22T03:20:49.593Z,965.44
2016-12-22T03:21:49.604Z,965.42
2016-12-22T03:22:49.615Z,965.42
2016-12-22T03:23:49.625Z,965.39
2016-12-22T03:24:49.637Z,965.39
2016-12-22T03:25:49.648Z,965.34
2016-12-22T03:26:49.660Z,965.36
2016-12-22T03:27:49.721Z,965.34
2016-12-22T03:28:49.682Z,965.28
2016-12-22T03:29:49.692Z,965.31
2016-12-22T03:30:49.704Z,965.23
2016-12-22T03:31:49.717Z,965.2
2016-12-22T03:32:49.725Z,965.23
2016-12-22T03:33:49.745Z,965.18
2016-12-22T03:34:49.787Z,965.18
2016-12-22T03:35:49.760Z,965.2
2016-12-22T03:36:49.771Z,965.23
2016-12-22T03:37:49.782Z,965.25
2016-12-22T03:38:49.792Z,965.22
2016-12-22T03:39:49.803Z,965.28
2016-12-22T03:40:49.813Z,965.26
2016-12-22T03:41:49.825Z,965.28
2016-12-22T03:42:49.838Z,965.27
2016-12-22T03:43:49.847Z,965.29
2016-12-22T03:44:49.858Z,965.28
2016-12-22T03:45:49.888Z,965.29
2016-12-22T03:46:49.880Z,965.3
2016-12-22T03:47:49.891Z,965.3
2016-12-22T03:48:49.903Z,965.28
2016-12-22T03:49:49.914Z,965.33
2016-12-22T03:50:49.924Z,965.32
2016-12-22T03:51:49.935Z,965.35
2016-12-22T03:52:49.951Z,965.36
2016-12-22T03:53:49.958Z,965.34
2016-12-22T03:54:49.968Z,965.4
2016-12-22T03:55:49.979Z,965.44
2016-12-22T03:56:49.991Z,965.46
2016-12-22T03:57:50.002Z,965.48
2016-12-22T03:58:50.012Z,965.51
2016-12-22T03:59:50.033Z,965.51
2016-12-22T04:00:50.035Z,965.55
2016-12-22T04:01:50.046Z,965.57
2016-12-22T04:02:50.057Z,965.55
2016-12-22T04:03:50.069Z,965.58
2016-12-22T04:04:50.080Z,965.62
2016-12-22T04:05:50.090Z,965.62
2016-12-22T04:06:50.102Z,965.65
2016-12-22T04:07:50.114Z,965.65
2016-12-22T04:08:50.125Z,965.61
2016-12-22T04:09:50.135Z,965.56
2016-12-22T04:10:50.146Z,965.56
2016-12-22T04:11:50.157Z,965.6
2016-12-22T04:12:50.169Z,965.58
2016-12-22T04:13:50.179Z,965.64
2016-12-22T04:14:50.194Z,965.56
2016-12-22T04:15:50.201Z,965.54
2016-12-22T04:16:50.212Z,965.52
2016-12-22T04:17:50.223Z,965.5
2016-12-22T04:18:50.235Z,965.49
2016-12-22T04:19:50.246Z,965.49
2016-12-22T04:20:50.274Z,965.47
2016-12-22T04:21:50.269Z,965.46
2016-12-22T04:22:50.281Z,965.42
2016-12-22T04:23:50.291Z,965.39
2016-12-22T04:24:50.302Z,965.41
2016-12-22T04:25:50.313Z,965.34
2016-12-22T04:26:50.325Z,965.37
2016-12-22T04:27:50.339Z,965.39
2016-12-22T04:28:50.346Z,965.4
2016-12-22T04:29:50.357Z,965.42
2016-12-22T04:30:50.367Z,965.43
2016-12-22T04:31:50.379Z,965.42
2016-12-22T04:32:50.390Z,965.45
2016-12-22T04:33:50.401Z,965.48
2016-12-22T04:34:50.412Z,965.5
2016-12-22T04:35:50.422Z,965.51
2016-12-22T04:36:50.434Z,965.55
2016-12-22T04:37:50.446Z,965.55
2016-12-22T04:38:50.455Z,965.56
2016-12-22T04:39:50.466Z,965.57
2016-12-22T04:40:50.478Z,965.61
2016-12-22T04:41:50.489Z,965.55
2016-12-22T04:42:50.500Z,965.56
2016-12-22T04:43:50.509Z,965.55
2016-12-22T04:44:50.521Z,965.52
2016-12-22T04:45:50.531Z,965.54
2016-12-22T04:46:50.544Z,965.5
2016-12-22T04:47:50.554Z,965.49
2016-12-22T04:48:50.565Z,965.48
2016-12-22T04:49:50.574Z,965.47
2016-12-22T04:50:50.585Z,965.51
2016-12-22T04:51:50.596Z,965.5
2016-12-22T04:52:50.608Z,965.52
2016-12-22T04:53:50.618Z,965.56
2016-12-22T04:54:50.630Z,965.58
2016-12-22T04:55:50.641Z,965.62
2016-12-22T04:56:50.651Z,965.56
2016-12-22T04:57:50.663Z,965.58
2016-12-22T04:58:50.675Z,965.66
2016-12-22T04:59:50.684Z,965.61
2016-12-22T05:00:50.696Z,965.61
2016-12-22T05:01:50.706Z,965.65
2016-12-22T05:02:50.717Z,965.65
2016-12-22T05:03:50.727Z,965.65
2016-12-22T05:04:50.738Z,965.64
2016-12-22T05:05:50.753Z,965.6
2016-12-22T05:06:50.760Z,965.61
2016-12-22T05:07:50.770Z,965.59
2016-12-22T05:08:50.783Z,965.58
2016-12-22T05:09:50.793Z,965.63
2016-12-22T05:10:50.825Z,965.64
2016-12-22T05:11:50.814Z,965.67
2016-12-22T05:12:50.826Z,965.68
2016-12-22T05:13:50.835Z,965.7
2016-12-22T05:14:50.846Z,965.66
2016-12-22T05:15:50.858Z,965.68
2016-12-22T05:16:50.869Z,965.64
2016-12-22T05:17:50.891Z,965.67
2016-12-22T05:18:50.890Z,965.7
2016-12-22T05:19:50.900Z,965.67
2016-12-22T05:20:50.912Z,965.69
2016-12-22T05:21:50.924Z,965.73
2016-12-22T05:22:50.934Z,965.63
2016-12-22T05:23:50.945Z,965.62
2016-12-22T05:24:50.957Z,965.62
2016-12-22T05:25:50.966Z,965.63
2016-12-22T05:26:50.977Z,965.63
2016-12-22T05:27:50.988Z,965.61
2016-12-22T05:28:50.999Z,965.6
2016-12-22T05:29:51.009Z,965.57
2016-12-22T05:30:51.020Z,965.52
2016-12-22T05:31:51.033Z,965.53
2016-12-22T05:32:51.042Z,965.52
2016-12-22T05:33:51.052Z,965.49
2016-12-22T05:34:51.063Z,965.46
2016-12-22T05:35:51.074Z,965.46
2016-12-22T05:36:51.084Z,965.45
2016-12-22T05:37:51.095Z,965.44
2016-12-22T05:38:51.108Z,965.41
2016-12-22T05:39:51.120Z,965.42
2016-12-22T05:40:51.127Z,965.38
2016-12-22T05:41:51.137Z,965.39
2016-12-22T05:42:51.148Z,965.44
2016-12-22T05:43:51.159Z,965.42
2016-12-22T05:44:51.169Z,965.41
2016-12-22T05:45:51.180Z,965.39
2016-12-22T05:46:51.191Z,965.39
2016-12-22T05:47:51.200Z,965.39
2016-12-22T05:48:51.211Z,965.42
2016-12-22T05:49:51.222Z,965.39
2016-12-22T05:50:51.232Z,965.4
2016-12-22T05:51:51.241Z,965.45
2016-12-22T05:52:51.253Z,965.5
2016-12-22T05:53:51.264Z,965.54
2016-12-22T05:54:51.274Z,965.61
2016-12-22T05:55:51.285Z,965.59
2016-12-22T05:56:51.296Z,965.6
2016-12-22T05:57:51.307Z,965.6
2016-12-22T05:58:51.316Z,965.66
2016-12-22T05:59:51.343Z,965.64
2016-12-22T06:00:51.336Z,965.66
2016-12-22T06:01:51.347Z,965.76
2016-12-22T06:02:51.357Z,965.72
2016-12-22T06:03:51.368Z,965.75
2016-12-22T06:04:51.379Z,965.82
2016-12-22T06:05:51.389Z,965.84
2016-12-22T06:06:51.409Z,965.93
2016-12-22T06:07:51.411Z,965.92
2016-12-22T06:08:51.421Z,965.91
2016-12-22T06:09:51.430Z,965.93
2016-12-22T06:10:51.441Z,965.94
2016-12-22T06:11:51.453Z,965.94
2016-12-22T06:12:51.463Z,965.89
2016-12-22T06:13:51.474Z,965.93
2016-12-22T06:14:51.483Z,965.89
2016-12-22T06:15:51.494Z,965.89
2016-12-22T06:16:51.503Z,965.89
2016-12-22T06:17:51.515Z,965.92
2016-12-22T06:18:51.528Z,965.92
2016-12-22T06:19:51.536Z,965.93
2016-12-22T06:20:51.555Z,965.93
2016-12-22T06:21:51.557Z,965.99
2016-12-22T06:22:51.568Z,965.97
2016-12-22T06:23:51.579Z,965.96
2016-12-22T06:24:51.588Z,965.99
2016-12-22T06:25:51.598Z,965.92
2016-12-22T06:26:51.609Z,965.95
2016-12-22T06:27:51.620Z,965.98
2016-12-22T06:28:51.630Z,966.02
2016-12-22T06:29:51.641Z,965.99
2016-12-22T06:30:51.653Z,965.95
2016-12-22T06:31:51.662Z,965.91
2016-12-22T06:32:51.673Z,965.94
2016-12-22T06:33:51.685Z,965.92
2016-12-22T06:34:51.695Z,965.89
2016-12-22T06:35:51.705Z,965.92
2016-12-22T06:36:51.715Z,965.92
2016-12-22T06:37:51.727Z,965.91
2016-12-22T06:38:51.736Z,965.91
2016-12-22T06:39:51.747Z,965.92
2016-12-22T06:40:51.757Z,965.95
2016-12-22T06:41:51.769Z,965.9
2016-12-22T06:42:51.780Z,965.86
2016-12-22T06:43:51.790Z,965.87
2016-12-22T06:44:51.801Z,965.87
2016-12-22T06:45:51.811Z,965.9
2016-12-22T06:46:51.823Z,965.87
2016-12-22T06:47:51.832Z,965.86
2016-12-22T06:48:51.843Z,965.9
2016-12-22T06:49:51.854Z,965.83
2016-12-22T06:50:51.864Z,965.85
2016-12-22T06:51:51.876Z,965.86
2016-12-22T06:52:51.886Z,965.78
2016-12-22T06:53:51.895Z,965.82
2016-12-22T06:54:51.906Z,965.82
2016-12-22T06:55:51.916Z,965.79
2016-12-22T06:56:51.929Z,965.8
2016-12-22T06:57:51.938Z,965.82
2016-12-22T06:58:51.950Z,965.81
2016-12-22T06:59:51.961Z,965.8
2016-12-22T07:00:51.971Z,965.81
2016-12-22T07:01:51.980Z,965.77
2016-12-22T07:02:51.992Z,965.75
2016-12-22T07:03:52.003Z,965.75
2016-12-22T07:04:52.012Z,965.8
2016-12-22T07:05:52.024Z,965.83
2016-12-22T07:06:52.034Z,965.84
2016-12-22T07:07:52.045Z,965.87
2016-12-22T07:08:52.056Z,965.88
2016-12-22T07:09:52.066Z,965.9
2016-12-22T07:10:52.093Z,965.85
2016-12-22T07:11:52.087Z,965.86
2016-12-22T07:12:52.098Z,965.88
2016-12-22T07:13:52.108Z,965.86
2016-12-22T07:14:52.119Z,965.92
2016-12-22T07:15:52.130Z,965.91
2016-12-22T07:16:52.141Z,965.92
2016-12-22T07:17:52.156Z,965.98
2016-12-22T07:18:52.162Z,966.01
2016-12-22T07:19:52.172Z,966.02
2016-12-22T07:20:52.184Z,966.06
2016-12-22T07:21:52.194Z,966.08
2016-12-22T07:22:52.204Z,966.1
2016-12-22T07:23:52.216Z,966.09
2016-12-22T07:24:52.226Z,966.09
2016-12-22T07:25:52.237Z,966.06
2016-12-22T07:26:52.247Z,966.07
2016-12-22T07:27:52.261Z,966.11
2016-12-22T07:28:52.270Z,966.08
2016-12-22T07:29:52.280Z,966.1
2016-12-22T07:30:52.291Z,966.12
2016-12-22T07:31:52.303Z,966.11
2016-12-22T07:32:52.312Z,966.14
2016-12-22T07:33:52.325Z,966.15
2016-12-22T07:34:52.334Z,966.15
2016-12-22T07:35:52.344Z,966.14
2016-12-22T07:36:52.356Z,966.19
2016-12-22T07:37:52.366Z,966.15
2016-12-22T07:38:52.376Z,966.15
2016-12-22T07:39:52.387Z,966.07
2016-12-22T07:40:52.397Z,966.07
2016-12-22T07:41:52.409Z,966.04
2016-12-22T07:42:52.419Z,966.05
2016-12-22T07:43:52.430Z,966.06
2016-12-22T07:44:52.440Z,966.1
2016-12-22T07:45:52.552Z,966.06
2016-12-22T07:46:52.462Z,966.07
2016-12-22T07:47:52.473Z,966.09
2016-12-22T07:48:52.482Z,966.09
2016-12-22T07:49:52.494Z,966.1
2016-12-22T07:50:52.505Z,966.07
2016-12-22T07:51:52.515Z,966.07
2016-12-22T07:52:52.543Z,966.06
2016-12-22T07:53:52.536Z,966.09
2016-12-22T07:54:52.549Z,966.06
2016-12-22T07:55:52.557Z,966.1
2016-12-22T07:56:52.568Z,966.13
2016-12-22T07:57:52.579Z,966.19
2016-12-22T07:58:52.591Z,966.19
2016-12-22T07:59:52.609Z,966.19
2016-12-22T08:00:52.611Z,966.16
2016-12-22T08:01:52.621Z,966.14
2016-12-22T08:02:52.632Z,966.15
2016-12-22T08:03:52.646Z,966.14
2016-12-22T08:04:52.654Z,966.11
2016-12-22T08:05:52.666Z,966.18
2016-12-22T08:06:52.717Z,966.16
2016-12-22T08:07:52.687Z,966.2
2016-12-22T08:08:52.698Z,966.22
2016-12-22T08:09:52.709Z,966.22
2016-12-22T08:10:52.718Z,966.19
2016-12-22T08:11:52.729Z,966.19
2016-12-22T08:12:52.741Z,966.23
2016-12-22T08:13:52.754Z,966.25
2016-12-22T08:14:52.762Z,966.27
2016-12-22T08:15:52.773Z,966.23
2016-12-22T08:16:52.784Z,966.27
2016-12-22T08:17:52.794Z,966.24
2016-12-22T08:18:52.804Z,966.21
2016-12-22T08:19:52.816Z,966.17
2016-12-22T08:20:52.828Z,966.19
2016-12-22T08:21:52.838Z,966.15
2016-12-22T08:22:52.849Z,966.16
2016-12-22T08:23:52.860Z,966.12
2016-12-22T08:24:52.871Z,966.12
2016-12-22T08:25:52.882Z,966.1
2016-12-22T08:26:52.892Z,966.16
2016-12-22T08:27:52.904Z,966.17
2016-12-22T08:28:52.913Z,966.21
2016-12-22T08:29:52.924Z,966.22
2016-12-22T08:30:52.936Z,966.22
2016-12-22T08:31:52.947Z,966.22
2016-12-22T08:32:52.957Z,966.24
2016-12-22T08:33:52.968Z,966.25
2016-12-22T08:34:52.980Z,966.24
2016-12-22T08:35:52.990Z,966.28
2016-12-22T08:36:53.001Z,966.27
2016-12-22T08:37:53.012Z,966.26
2016-12-22T08:38:53.024Z,966.26
2016-12-22T08:39:53.033Z,966.24
2016-12-22T08:40:53.045Z,966.26
2016-12-22T08:41:53.058Z,966.26
2016-12-22T08:42:53.088Z,966.28
2016-12-22T08:43:53.077Z,966.31
2016-12-22T08:44:53.090Z,966.31
2016-12-22T08:45:53.101Z,966.27
2016-12-22T08:46:53.111Z,966.27
2016-12-22T08:47:53.122Z,966.33
2016-12-22T08:48:53.134Z,966.35
2016-12-22T08:49:53.154Z,966.38
2016-12-22T08:50:53.155Z,966.34
2016-12-22T08:51:53.167Z,966.38
2016-12-22T08:52:53.179Z,966.41
2016-12-22T08:53:53.190Z,966.4
2016-12-22T08:54:53.202Z,966.42
2016-12-22T08:55:53.213Z,966.39
2016-12-22T08:56:53.233Z,966.41
2016-12-22T08:57:53.235Z,966.41
2016-12-22T08:58:53.247Z,966.43
2016-12-22T08:59:53.258Z,966.46
2016-12-22T09:00:53.271Z,966.47
2016-12-22T09:01:53.280Z,966.44
2016-12-22T09:02:53.293Z,966.45
2016-12-22T09:03:53.304Z,966.47
2016-12-22T09:04:53.316Z,966.47
2016-12-22T09:05:53.330Z,966.46
2016-12-22T09:06:53.339Z,966.51
2016-12-22T09:07:53.350Z,966.49
2016-12-22T09:08:53.362Z,966.54
2016-12-22T09:09:53.374Z,966.53
2016-12-22T09:10:53.386Z,966.53
2016-12-22T09:11:53.396Z,966.51
2016-12-22T09:12:53.410Z,966.54
2016-12-22T09:13:53.421Z,966.5
2016-12-22T09:14:53.433Z,966.5
2016-12-22T09:15:53.444Z,966.5
2016-12-22T09:16:53.455Z,966.47
2016-12-22T09:17:53.474Z,966.5
2016-12-22T09:22:19.959Z,966.45
2016-12-22T09:23:19.970Z,966.45
2016-12-22T09:24:19.982Z,966.44
2016-12-22T09:25:19.994Z,966.47
2016-12-22T09:26:20.005Z,966.46
2016-12-22T09:27:20.018Z,966.49
2016-12-22T09:28:20.031Z,966.48
2016-12-22T09:29:20.042Z,966.46
2016-12-22T09:30:20.056Z,966.56
2016-12-22T09:31:20.068Z,966.5
2016-12-22T09:32:20.080Z,966.5
2016-12-22T09:33:20.094Z,966.46
2016-12-22T09:34:20.107Z,966.53
2016-12-22T09:35:20.132Z,966.52
2016-12-22T09:36:20.132Z,966.46
2016-12-22T09:37:20.145Z,966.48
2016-12-22T09:38:20.159Z,966.49
2016-12-22T09:39:20.172Z,966.57
2016-12-22T09:40:20.188Z,966.51
2016-12-22T09:41:20.198Z,966.55
2016-12-22T09:42:20.218Z,966.56
2016-12-22T09:43:20.226Z,966.52
2016-12-22T09:44:20.240Z,966.51
2016-12-22T09:45:20.254Z,966.49
2016-12-22T09:46:20.267Z,966.51
2016-12-22T09:47:20.282Z,966.51
2016-12-22T09:48:20.297Z,966.51
2016-12-22T09:49:20.311Z,966.48
2016-12-22T09:50:20.327Z,966.5
2016-12-22T09:51:20.340Z,966.56
2016-12-22T09:52:20.355Z,966.56
2016-12-22T09:53:20.370Z,966.52
2016-12-22T09:54:20.382Z,966.61
2016-12-22T09:55:20.398Z,966.62
2016-12-22T09:56:20.414Z,966.6
2016-12-22T09:57:20.438Z,966.64
2016-12-22T09:58:20.443Z,966.65
2016-12-22T09:59:20.458Z,966.64
2016-12-22T10:00:20.474Z,966.64
2016-12-22T10:01:20.490Z,966.6
2016-12-22T10:02:20.503Z,966.55
2016-12-22T10:03:20.519Z,966.61
2016-12-22T10:04:20.548Z,966.58
2016-12-22T10:05:20.549Z,966.53
2016-12-22T10:06:20.565Z,966.53
2016-12-22T10:07:20.580Z,966.53
2016-12-22T10:08:20.596Z,966.54
2016-12-22T10:09:20.612Z,966.49
2016-12-22T10:10:20.627Z,966.47
2016-12-22T10:11:20.643Z,966.46
2016-12-22T10:12:20.659Z,966.46
2016-12-22T10:13:20.674Z,966.48
2016-12-22T10:14:20.688Z,966.43
2016-12-22T10:15:20.705Z,966.43
2016-12-22T10:16:20.720Z,966.46
2016-12-22T10:17:20.737Z,966.4
2016-12-22T10:18:20.752Z,966.41
2016-12-22T10:19:20.772Z,966.4
2016-12-22T10:20:20.783Z,966.42
2016-12-22T10:21:20.801Z,966.43
2016-12-22T10:22:20.816Z,966.42
2016-12-22T10:23:20.833Z,966.44
2016-12-22T10:24:20.847Z,966.44
2016-12-22T10:25:20.863Z,966.44
2016-12-22T10:26:20.897Z,966.44
2016-12-22T10:27:20.895Z,966.45
2016-12-22T10:28:20.912Z,966.46
2016-12-22T10:29:20.930Z,966.44
2016-12-22T10:30:20.946Z,966.46
2016-12-22T10:31:20.959Z,966.42
2016-12-22T10:32:20.977Z,966.41
2016-12-22T10:33:20.993Z,966.37
2016-12-22T10:34:21.008Z,966.39
2016-12-22T10:35:21.024Z,966.43
2016-12-22T10:36:21.040Z,966.41
2016-12-22T10:37:21.057Z,966.39
2016-12-22T10:38:21.072Z,966.43
2016-12-22T10:39:21.091Z,966.42
2016-12-22T10:40:21.106Z,966.41
2016-12-22T10:41:21.124Z,966.39
2016-12-22T10:42:21.137Z,966.44
2016-12-22T10:43:21.205Z,966.44
2016-12-22T10:44:21.171Z,966.43
2016-12-22T10:45:21.187Z,966.34
2016-12-22T10:46:21.203Z,966.37
2016-12-22T10:47:21.219Z,966.37
2016-12-22T10:48:21.248Z,966.35
2016-12-22T10:49:21.251Z,966.37
2016-12-22T10:50:21.268Z,966.37
2016-12-22T10:51:21.284Z,966.32
2016-12-22T10:52:21.301Z,966.3
2016-12-22T10:53:21.316Z,966.28
2016-12-22T10:54:21.333Z,966.27
2016-12-22T10:55:21.447Z,966.22
2016-12-22T10:56:21.367Z,966.24
2016-12-22T10:57:21.382Z,966.22
2016-12-22T10:58:21.399Z,966.18
2016-12-22T10:59:21.415Z,966.18
2016-12-22T11:00:21.432Z,966.17
2016-12-22T11:01:21.448Z,966.17
2016-12-22T11:02:21.465Z,966.16
2016-12-22T11:03:21.484Z,966.18
2016-12-22T11:04:21.497Z,966.17
2016-12-22T11:05:21.717Z,966.16
2016-12-22T11:06:21.529Z,966.13
2016-12-22T11:07:21.546Z,966.17
2016-12-22T11:08:21.562Z,966.17
2016-12-22T11:09:21.579Z,966.2
2016-12-22T11:10:21.597Z,966.15
2016-12-22T11:11:21.611Z,966.16
2016-12-22T11:12:21.628Z,966.16
2016-12-22T11:13:21.644Z,966.12
2016-12-22T11:14:21.661Z,966.13
2016-12-22T11:15:21.677Z,966.16
2016-12-22T11:16:21.693Z,966.15
2016-12-22T11:17:21.713Z,966.14
2016-12-22T11:18:21.726Z,966.13
2016-12-22T11:19:21.742Z,966.14
2016-12-22T11:20:21.758Z,966.13
2016-12-22T11:21:21.775Z,966.13
2016-12-22T11:22:21.791Z,966.12
2016-12-22T11:23:21.808Z,966.08
2016-12-22T11:24:21.824Z,966.08
2016-12-22T11:25:21.842Z,966.1
2016-12-22T11:26:21.857Z,966
2016-12-22T11:27:21.875Z,966.02
2016-12-22T11:28:21.891Z,966.05
2016-12-22T11:29:21.908Z,966.02
2016-12-22T11:30:21.924Z,965.97
2016-12-22T11:31:21.940Z,966.03
2016-12-22T11:32:21.956Z,965.99
2016-12-22T11:33:21.974Z,966.01
2016-12-22T11:34:21.990Z,966.03
2016-12-22T11:35:22.007Z,966.03
2016-12-22T11:36:22.024Z,966.04
2016-12-22T11:37:22.040Z,966.03
2016-12-22T11:38:22.057Z,966.02
2016-12-22T11:39:22.074Z,966.02
2016-12-22T11:40:22.106Z,966
2016-12-22T11:41:22.107Z,965.96
2016-12-22T11:42:22.124Z,965.98
2016-12-22T11:43:22.142Z,965.93
2016-12-22T11:44:22.158Z,965.98
2016-12-22T11:45:22.173Z,965.98
2016-12-22T11:46:22.191Z,966
2016-12-22T11:47:22.230Z,965.98
2016-12-22T11:48:22.224Z,965.95
2016-12-22T11:49:22.242Z,965.97
2016-12-22T11:50:22.259Z,965.96
2016-12-22T11:51:22.275Z,965.93
2016-12-22T11:52:22.292Z,965.91
2016-12-22T11:53:22.309Z,965.89
2016-12-22T11:54:22.326Z,965.92
2016-12-22T11:55:22.342Z,965.91
2016-12-22T11:56:22.359Z,965.92
2016-12-22T11:57:22.376Z,965.93
2016-12-22T11:58:22.393Z,965.87
2016-12-22T11:59:22.410Z,965.93
2016-12-22T12:00:22.427Z,965.93
2016-12-22T12:01:22.444Z,965.95
2016-12-22T12:02:22.460Z,965.9
2016-12-22T12:03:22.476Z,965.87
2016-12-22T12:04:22.500Z,965.89
2016-12-22T12:05:22.513Z,965.87
2016-12-22T12:06:22.528Z,965.93
2016-12-22T12:07:22.545Z,965.95
2016-12-22T12:08:22.564Z,965.97
2016-12-22T12:09:22.581Z,965.96
2016-12-22T12:10:22.595Z,965.94
2016-12-22T12:11:22.614Z,965.93
2016-12-22T12:12:22.632Z,965.97
2016-12-22T12:13:22.649Z,965.95
2016-12-22T12:14:22.666Z,965.99
2016-12-22T12:15:22.685Z,965.97
2016-12-22T12:16:22.702Z,965.99
2016-12-22T12:17:22.738Z,966
2016-12-22T12:18:22.737Z,965.97
2016-12-22T12:19:22.754Z,966.01
2016-12-22T12:20:22.772Z,965.97
2016-12-22T12:21:22.789Z,965.96
2016-12-22T12:22:22.807Z,965.92
2016-12-22T12:23:22.824Z,965.92
2016-12-22T12:24:22.863Z,965.96
2016-12-22T12:25:22.859Z,965.96
2016-12-22T12:26:22.877Z,965.96
2016-12-22T12:27:22.894Z,965.94
2016-12-22T12:28:22.911Z,965.91
2016-12-22T12:29:22.928Z,965.92
2016-12-22T12:30:22.947Z,965.92
2016-12-22T12:31:22.964Z,965.9
2016-12-22T12:32:22.981Z,965.92
2016-12-22T12:33:22.999Z,965.94
2016-12-22T12:34:23.017Z,965.89
2016-12-22T12:35:23.033Z,965.92